Briefing drone pour Fourchambault

Rechercher une autre localisation

Conditions de vol :


Nous sommes le : Dimanche 03 juillet 2022
Il est 09:21 UTC (11:21 LT)

Lever de soleil : 03:32 UTC (05:32 LT)
Coucher de soleil : 20:11 UTC (22:11 LT)

Météo

L'essentiel des conditions de vol

VIGILANCE MÉTÉO FRANCE - Nièvre (58)
Pas de vigilances particulieres
CARTES DES FRONTS
METAR de LFQG
LFQG 030900Z AUTO 26004KT 220V320 CAVOK 22/16 Q1020

Date d'émission: 03/07/2022
Heure d'émission: 09:00 UTC
Vent: 260° (variable du 220° au 320°) pour 4 KT (7 km/h)
Visibilité horizontale: > 10 km
Plafond : Plafond et visibilité OK (CAVOK)
Température: 22 °C
Point de rosée: 16 °C
Humidité: 69%
Pression (QNH): 1020 hPa
Prévision 24h pour Nevers (5 km)
Vent : 105° pour 0 KT (1 km/h)
Temperature Maxi: 15 °C
Temperature Min: 15 °C
Humidité : 93%
Condition : Couvert



Warning: count(): Parameter must be an array or an object that implements Countable in /homepages/6/d509196549/htdocs/droneoxygene/briefing.php on line 743
WEBCAM POUR FOURCHAMBAULT

Réglementation

Voler en sécurité

CARTES AERONAUTIQUE 1/500.000
CARTES VAC (LFQG)
SUP AIP




Chargement des AIP...
NOTAM (FOURCHAMBAULT + Terrain à proximité / FIR )




Chargement des NOTAMS...
CONTACT PREFECTURE 58


Avertissement : Les données mises à disposition sont indicatives. Oxygène Drone ne pourra être tenu responsable de dégâts causés aux biens et aux personnes.